Quick Links (Output Below):   Max & Min Temps   /   Climate Reports   /   Zone Forecasts
River Forecasts   /   Forestry Forecasts   /   Aviation Forecasts   /   Radars   /   Features

Terminal Aerodrome Forecast (Arkadelphia)

Pick a Site:
Arkadelphia | El Dorado | Fayetteville | Fort Smith | Harrison | Highfill | Hot Springs | Jonesboro
Little Rock | Monticello | Mountain Home | Pine Bluff | Texarkana

KADF 281551Z 2816/2912 05004KT 2SM RA BR OVC007
      TEMPO 2816/2818 3/4SM +RA BR BKN004
     FM281800 05004KT 3SM -RA BR OVC004
     FM290000 02004KT 2SM RA BR OVC004=

 Latest METARs (Observations) 
How to Decode METARs
16Z KADF 281556Z AUTO 03008KT 1SM RA BR SCT002 OVC010 09/09 A3019 RMK
         AO2 T00940094 CIG 006V013 P0016 SLP237
15Z KADF 281456Z AUTO 04009KT 020V080 1 1/4SM RA BR SCT002 BKN009
         OVC017 09/09 A3018 RMK AO2 53004 60048 T00940094 CIG 006V013
         P0014 SLP233
14Z KADF 281356Z AUTO 04008KT 3SM RA BR BKN005 OVC010 10/10 A3018 RMK
         AO2 T01000100 CIG 002V008 P0011 SLP233
13Z KADF 281256Z AUTO 04005KT 2 1/2SM RA BR SCT003 OVC008 10/10 A3017
         RMK AO2 T01000100 CIG 005V011 P0023 SLP230
12Z KADF 281156Z AUTO 01008KT 1 1/4SM +RA BR FEW003 BKN012 OVC024
         11/11 A3017 RMK AO2 53003 60153 70281 T01050105 10122 20105
         P0018 SLP230
11Z KADF 281056Z AUTO 01005KT 2SM +RA BR SCT002 BKN009 OVC014 11/11
         A3016 RMK AO2 T01110111 CIG 007V011 P0019 SLP227
10Z KADF 280956Z AUTO 02006KT 1 1/2SM +RA BR BKN002 OVC013 12/12 A3015
         RMK AO2 T01160116 BKN V SCT P0026 SLP225
09Z KADF 280856Z AUTO 36006KT 2SM +RA BR SCT002 OVC011 12/12 A3016 RMK
         AO2 55001 60090 T01160116 P0030 SLP226
08Z KADF 280756Z AUTO 35003KT 2SM +RA BR BKN002 OVC011 12/12 A3015 RMK
         AO2 T01160116 BKN V SCT P0032 SLP224
07Z KADF 280656Z AUTO 02004KT 2SM +RA BR BKN002 OVC011 12/12 A3015 RMK
         AO2 T01160116 P0028 SLP223
***** Today's Observations (Above) *****

Back to Main Page

USA.gov is the U.S. government's official web portal to all federal, state and local government web resources and services.